Time;durP1;ratioP1;P1;durP2;ratioP2;P2;SDS_P1;SDS_P2;PMS_P1;PMS_P2;Temp;Humidity;BMP_temperature;BMP_pressure;BME280_temperature;BME280_humidity;BME280_pressure;Samples;Min_cycle;Max_cycle;Signal;HPM_P1;HPM_P2
2022/03/20 00:00:12;;;;;;;;;;;9.00;70.90;;;;;;5079681;28;19913;-75
2022/03/20 00:02:38;;;;;;;;;;;9.00;71.00;;;;;;5072193;28;20049;-75
2022/03/20 00:05:04;;;;;;;;;;;9.10;71.00;;;;;;5068994;28;19944;-74
2022/03/20 00:07:33;;;;;;;;;;;9.10;71.00;;;;;;5086084;28;19985;-75
2022/03/20 00:09:58;;;;;;;;;;;9.10;71.00;;;;;;5053030;28;20375;-75
2022/03/20 00:12:24;;;;;;;;;;;9.10;71.10;;;;;;5071306;28;19909;-75
2022/03/20 00:14:50;;;;;;;;;;;9.10;71.20;;;;;;5067252;28;19963;-74
2022/03/20 00:17:16;;;;;;;;;;;9.10;71.40;;;;;;5078160;28;19958;-75
2022/03/20 00:19:42;;;;;;;;;;;9.10;71.40;;;;;;5078201;28;19909;-74
2022/03/20 00:22:08;;;;;;;;;;;9.10;71.10;;;;;;5078108;28;19919;-74
2022/03/20 00:24:34;;;;;;;;;;;9.10;71.40;;;;;;5078159;28;19905;-74
2022/03/20 00:27:00;;;;;;;;;;;9.10;71.50;;;;;;5077656;28;20367;-74
2022/03/20 00:29:26;;;;;;;;;;;9.10;71.70;;;;;;5078100;28;19977;-75
2022/03/20 00:31:52;;;;;;;;;;;9.10;71.80;;;;;;5085313;28;20328;-74
2022/03/20 00:34:17;;;;;;;;;;;9.10;71.60;;;;;;5077189;28;19917;-74
2022/03/20 00:36:43;;;;;;;;;;;9.10;71.60;;;;;;5082339;28;19909;-75
2022/03/20 00:39:12;;;;;;;;;;;9.10;71.60;;;;;;5059048;28;19917;-74
2022/03/20 00:41:37;;;;;;;;;;;9.10;71.70;;;;;;5077302;28;19912;-74
2022/03/20 00:44:03;;;;;;;;;;;9.10;72.00;;;;;;5059595;28;20252;-74
2022/03/20 00:46:29;;;;;;;;;;;9.10;72.10;;;;;;5077520;28;20330;-74
2022/03/20 00:48:54;;;;;;;;;;;9.10;72.20;;;;;;5077005;28;19916;-74
2022/03/20 00:51:20;;;;;;;;;;;9.10;72.30;;;;;;5077645;28;19908;-74
2022/03/20 00:53:46;;;;;;;;;;;9.10;72.30;;;;;;5074507;28;19912;-74
2022/03/20 00:56:12;;;;;;;;;;;9.10;72.40;;;;;;5084000;28;19913;-74
2022/03/20 00:58:38;;;;;;;;;;;9.10;72.30;;;;;;5083404;28;19916;-74
2022/03/20 01:01:04;;;;;;;;;;;9.10;72.30;;;;;;5095111;28;19914;-74
2022/03/20 01:03:30;;;;;;;;;;;9.10;72.20;;;;;;5081806;28;19968;-74
2022/03/20 01:05:56;;;;;;;;;;;9.10;72.40;;;;;;5077759;28;19930;-75
2022/03/20 01:08:21;;;;;;;;;;;9.10;72.00;;;;;;5065993;28;19912;-75
2022/03/20 01:10:47;;;;;;;;;;;9.10;72.00;;;;;;5075345;28;20093;-74
2022/03/20 01:13:13;;;;;;;;;;;9.20;72.00;;;;;;5079517;28;19991;-74
2022/03/20 01:15:38;;;;;;;;;;;9.10;71.80;;;;;;5078253;28;19909;-75
2022/03/20 01:18:04;;;;;;;;;;;9.20;72.00;;;;;;5077633;28;19950;-74
2022/03/20 01:20:30;;;;;;;;;;;9.20;72.00;;;;;;5081421;28;20008;-74
2022/03/20 01:22:55;;;;;;;;;;;9.20;72.10;;;;;;5073251;28;20047;-74
2022/03/20 01:25:21;;;;;;;;;;;9.10;72.00;;;;;;5068002;28;19912;-75
2022/03/20 01:27:46;;;;;;;;;;;9.10;71.80;;;;;;5076737;28;19912;-74
2022/03/20 01:30:12;;;;;;;;;;;9.20;71.90;;;;;;5076360;28;19913;-74
2022/03/20 01:32:38;;;;;;;;;;;9.10;71.90;;;;;;5078409;28;20438;-75
2022/03/20 01:35:04;;;;;;;;;;;9.20;73.10;;;;;;5080240;28;20007;-75
2022/03/20 01:37:30;;;;;;;;;;;9.20;72.40;;;;;;5076890;28;19919;-75
2022/03/20 01:39:55;;;;;;;;;;;9.20;72.20;;;;;;5079046;28;20063;-75
2022/03/20 01:42:21;;;;;;;;;;;9.20;72.60;;;;;;5076558;28;19964;-75
2022/03/20 01:44:47;;;;;;;;;;;9.20;72.50;;;;;;5081291;28;19912;-75
2022/03/20 01:47:13;;;;;;;;;;;9.20;72.60;;;;;;5092333;28;19923;-75
2022/03/20 01:49:39;;;;;;;;;;;9.20;72.70;;;;;;5089471;28;20337;-75
2022/03/20 01:52:10;;;;;;;;;;;9.20;72.80;;;;;;5080738;28;19909;-75
2022/03/20 01:54:39;;;;;;;;;;;9.20;72.60;;;;;;5084143;28;19916;-75
2022/03/20 01:57:07;;;;;;;;;;;9.20;72.80;;;;;;5063382;28;19912;-75
2022/03/20 01:59:32;;;;;;;;;;;9.20;73.00;;;;;;5089876;28;19912;-75
2022/03/20 02:01:58;;;;;;;;;;;9.10;72.90;;;;;;5081762;28;19923;-75
2022/03/20 02:04:24;;;;;;;;;;;9.10;73.10;;;;;;5064624;28;20272;-76
2022/03/20 02:06:49;;;;;;;;;;;9.10;73.10;;;;;;5081582;28;20294;-75
2022/03/20 02:09:17;;;;;;;;;;;9.10;73.60;;;;;;5092862;28;19912;-76
2022/03/20 02:11:44;;;;;;;;;;;9.20;73.10;;;;;;5091019;28;19912;-76
2022/03/20 02:14:09;;;;;;;;;;;9.20;73.00;;;;;;5076679;28;19978;-76
2022/03/20 02:16:35;;;;;;;;;;;9.10;72.50;;;;;;5080446;28;19912;-77
2022/03/20 02:19:04;;;;;;;;;;;9.10;72.90;;;;;;5064455;28;19913;-77
2022/03/20 02:21:39;;;;;;;;;;;9.20;72.70;;;;;;5080751;28;19920;-77
2022/03/20 02:24:25;;;;;;;;;;;9.10;72.50;;;;;;5075219;28;19912;-77
2022/03/20 02:26:50;;;;;;;;;;;9.20;72.70;;;;;;5066185;28;20003;-77
2022/03/20 02:29:16;;;;;;;;;;;9.20;72.90;;;;;;5094746;28;19958;-77
2022/03/20 02:31:42;;;;;;;;;;;9.10;72.70;;;;;;5081428;28;19919;-77
2022/03/20 02:34:08;;;;;;;;;;;9.10;72.30;;;;;;5080848;28;20310;-77
2022/03/20 02:36:36;;;;;;;;;;;9.10;72.20;;;;;;5083443;28;20283;-77
2022/03/20 02:39:03;;;;;;;;;;;9.20;72.30;;;;;;5080952;28;19912;-77
2022/03/20 02:41:29;;;;;;;;;;;9.20;72.50;;;;;;5079686;28;20256;-77
2022/03/20 02:43:55;;;;;;;;;;;9.20;72.60;;;;;;5061878;28;20375;-77
2022/03/20 02:46:21;;;;;;;;;;;9.20;72.80;;;;;;5079756;28;19944;-78
2022/03/20 02:48:47;;;;;;;;;;;9.20;72.70;;;;;;5080988;28;19920;-77
2022/03/20 02:51:13;;;;;;;;;;;9.20;72.80;;;;;;5089964;28;19919;-78
2022/03/20 02:53:39;;;;;;;;;;;9.20;72.50;;;;;;5066952;28;19916;-77
2022/03/20 02:56:04;;;;;;;;;;;9.20;72.30;;;;;;5064811;28;19913;-77
2022/03/20 02:58:30;;;;;;;;;;;9.20;72.50;;;;;;5092032;28;19915;-78
2022/03/20 03:00:58;;;;;;;;;;;9.20;72.50;;;;;;5087476;28;19957;-78
2022/03/20 03:03:23;;;;;;;;;;;9.20;72.20;;;;;;5084334;28;19908;-78
2022/03/20 03:05:49;;;;;;;;;;;9.20;72.10;;;;;;5086961;28;19934;-77
2022/03/20 03:10:59;;;;;;;;;;;9.20;72.20;;;;;;5080450;28;20401;-76
2022/03/20 03:13:27;;;;;;;;;;;9.20;72.20;;;;;;5084429;28;19912;-76
2022/03/20 03:15:53;;;;;;;;;;;9.20;72.20;;;;;;5088052;28;19956;-76
2022/03/20 03:18:20;;;;;;;;;;;9.20;72.20;;;;;;5081541;28;19934;-76
2022/03/20 03:20:47;;;;;;;;;;;9.20;72.30;;;;;;5061320;28;19916;-76
2022/03/20 03:23:13;;;;;;;;;;;9.10;72.30;;;;;;5079180;28;19908;-76
2022/03/20 03:25:40;;;;;;;;;;;9.20;72.80;;;;;;5082142;28;20457;-77
2022/03/20 03:28:06;;;;;;;;;;;9.20;73.10;;;;;;5085335;28;19935;-77
2022/03/20 03:30:32;;;;;;;;;;;9.10;73.30;;;;;;5081890;28;19912;-77
2022/03/20 03:32:57;;;;;;;;;;;9.10;73.70;;;;;;5079895;28;19918;-78
2022/03/20 03:35:41;;;;;;;;;;;9.10;73.80;;;;;;5064309;28;19962;-78
2022/03/20 03:38:14;;;;;;;;;;;9.20;73.60;;;;;;5086975;28;19971;-78
2022/03/20 03:40:41;;;;;;;;;;;9.20;73.20;;;;;;5084626;28;19919;-78
2022/03/20 03:43:06;;;;;;;;;;;9.10;72.80;;;;;;5078797;28;19908;-77
2022/03/20 03:45:33;;;;;;;;;;;9.10;72.60;;;;;;5079133;28;19927;-77
2022/03/20 03:47:58;;;;;;;;;;;9.10;72.80;;;;;;5090807;28;19939;-77
2022/03/20 03:50:24;;;;;;;;;;;9.10;72.80;;;;;;5085529;28;19942;-77
2022/03/20 03:52:50;;;;;;;;;;;9.10;72.70;;;;;;5080334;28;20050;-77
2022/03/20 03:55:16;;;;;;;;;;;9.10;72.70;;;;;;5078720;28;20376;-77
2022/03/20 03:57:51;;;;;;;;;;;9.10;72.40;;;;;;5078667;28;19936;-78
2022/03/20 04:00:17;;;;;;;;;;;9.10;72.40;;;;;;5083644;28;19912;-78
2022/03/20 04:02:43;;;;;;;;;;;9.10;72.40;;;;;;5079266;28;19912;-77
2022/03/20 04:05:09;;;;;;;;;;;9.10;72.40;;;;;;5082765;28;19919;-77
2022/03/20 04:07:35;;;;;;;;;;;9.10;72.30;;;;;;5062356;28;20337;-77
2022/03/20 04:10:02;;;;;;;;;;;9.10;72.50;;;;;;5073841;28;19912;-77
2022/03/20 04:12:28;;;;;;;;;;;9.10;72.20;;;;;;5069190;28;19964;-77
2022/03/20 04:14:54;;;;;;;;;;;9.10;72.20;;;;;;5063561;28;20015;-77
2022/03/20 04:17:19;;;;;;;;;;;9.10;72.50;;;;;;5074538;28;19912;-77
2022/03/20 04:19:45;;;;;;;;;;;9.10;72.40;;;;;;5084514;28;19913;-77
2022/03/20 04:22:11;;;;;;;;;;;9.10;72.30;;;;;;5081213;28;19913;-77
2022/03/20 04:24:36;;;;;;;;;;;9.10;72.30;;;;;;5062454;28;19912;-77
2022/03/20 04:27:03;;;;;;;;;;;9.10;72.50;;;;;;5087193;28;19963;-77
2022/03/20 04:29:29;;;;;;;;;;;9.10;72.40;;;;;;5065878;28;20337;-77
2022/03/20 04:31:55;;;;;;;;;;;9.10;72.30;;;;;;5084567;28;19912;-76
2022/03/20 04:34:21;;;;;;;;;;;9.00;72.30;;;;;;5080114;28;19912;-77
2022/03/20 04:36:46;;;;;;;;;;;9.00;72.30;;;;;;5077952;28;19927;-77
2022/03/20 04:39:12;;;;;;;;;;;9.00;72.50;;;;;;5061625;28;19912;-77
2022/03/20 04:41:38;;;;;;;;;;;9.00;72.50;;;;;;5060605;28;20345;-77
2022/03/20 04:44:04;;;;;;;;;;;9.00;72.30;;;;;;5061178;28;20303;-76
2022/03/20 04:46:29;;;;;;;;;;;9.00;72.20;;;;;;5087637;28;19924;-76
2022/03/20 04:59:53;;;;;;;;;;;8.90;72.00;;;;;;5081246;28;19935;-76
2022/03/20 05:02:18;;;;;;;;;;;8.90;71.80;;;;;;5059327;28;19917;-77
2022/03/20 05:04:44;;;;;;;;;;;9.00;71.90;;;;;;5057688;28;19919;-76
2022/03/20 05:07:10;;;;;;;;;;;9.00;71.90;;;;;;5079262;28;20386;-76
2022/03/20 05:15:08;;;;;;;;;;;8.90;71.90;;;;;;5077976;28;19919;-76
2022/03/20 05:17:34;;;;;;;;;;;8.90;71.90;;;;;;5077593;28;20275;-76
2022/03/20 05:20:00;;;;;;;;;;;8.90;71.90;;;;;;5079823;28;19913;-77
2022/03/20 05:22:25;;;;;;;;;;;8.90;71.70;;;;;;5073881;28;20329;-77
2022/03/20 05:24:51;;;;;;;;;;;8.90;71.80;;;;;;5086455;28;19913;-77
2022/03/20 05:27:17;;;;;;;;;;;8.90;72.00;;;;;;5090787;28;19922;-77
2022/03/20 05:29:43;;;;;;;;;;;8.90;71.90;;;;;;5064518;28;19952;-77
2022/03/20 05:32:09;;;;;;;;;;;8.90;71.80;;;;;;5082297;28;19920;-77
2022/03/20 05:34:35;;;;;;;;;;;8.90;71.90;;;;;;5084917;28;19916;-77
2022/03/20 05:37:01;;;;;;;;;;;8.90;71.90;;;;;;5082016;28;19962;-77
2022/03/20 05:39:27;;;;;;;;;;;8.90;71.90;;;;;;5085343;28;19980;-77
2022/03/20 05:41:53;;;;;;;;;;;8.90;71.80;;;;;;5069455;28;20398;-77
2022/03/20 05:44:20;;;;;;;;;;;8.90;71.80;;;;;;5093610;28;19912;-77
2022/03/20 05:46:48;;;;;;;;;;;8.90;72.00;;;;;;5087075;28;19969;-77
2022/03/20 05:49:15;;;;;;;;;;;8.80;71.90;;;;;;5083926;28;20015;-77
2022/03/20 05:51:40;;;;;;;;;;;8.80;71.60;;;;;;5094604;28;19943;-77
2022/03/20 05:54:06;;;;;;;;;;;8.80;72.20;;;;;;5083398;28;19935;-76
2022/03/20 05:59:16;;;;;;;;;;;8.80;71.70;;;;;;5081067;28;19926;-77
2022/03/20 06:01:42;;;;;;;;;;;8.80;71.80;;;;;;5084008;28;19919;-77
2022/03/20 06:04:08;;;;;;;;;;;8.80;71.80;;;;;;5077156;28;19973;-77
2022/03/20 06:06:35;;;;;;;;;;;8.80;71.60;;;;;;5082318;28;19924;-77
2022/03/20 06:09:02;;;;;;;;;;;8.80;71.60;;;;;;5075469;28;19912;-77
2022/03/20 06:11:27;;;;;;;;;;;8.80;71.60;;;;;;5065885;28;19919;-77
2022/03/20 06:13:53;;;;;;;;;;;8.80;71.90;;;;;;5090085;28;19916;-76
2022/03/20 06:16:22;;;;;;;;;;;8.80;71.70;;;;;;5089850;28;19935;-77
2022/03/20 06:18:48;;;;;;;;;;;8.80;71.80;;;;;;5064105;28;20057;-76
2022/03/20 06:21:14;;;;;;;;;;;8.80;71.60;;;;;;5061368;28;20341;-77
2022/03/20 06:23:39;;;;;;;;;;;8.80;71.40;;;;;;5081158;28;19913;-76
2022/03/20 06:26:06;;;;;;;;;;;8.80;71.20;;;;;;5087919;28;19919;-76
2022/03/20 06:28:32;;;;;;;;;;;8.70;71.10;;;;;;5086128;28;19951;-76
2022/03/20 06:30:58;;;;;;;;;;;8.70;71.10;;;;;;5087323;28;19920;-76
2022/03/20 06:33:27;;;;;;;;;;;8.70;71.10;;;;;;5079940;28;19913;-76
2022/03/20 06:35:53;;;;;;;;;;;8.70;71.00;;;;;;5081150;28;19919;-76
2022/03/20 06:38:19;;;;;;;;;;;8.80;71.00;;;;;;5080104;28;20409;-76
2022/03/20 06:40:45;;;;;;;;;;;8.70;70.70;;;;;;5073436;28;19912;-76
2022/03/20 06:43:10;;;;;;;;;;;8.70;70.40;;;;;;5079926;28;19984;-76
2022/03/20 06:45:36;;;;;;;;;;;8.80;70.40;;;;;;5080677;28;20002;-76
2022/03/20 06:48:03;;;;;;;;;;;8.80;70.30;;;;;;5091469;28;20291;-76
2022/03/20 06:50:28;;;;;;;;;;;8.80;70.10;;;;;;5092650;28;20402;-76
2022/03/20 06:52:54;;;;;;;;;;;8.80;69.90;;;;;;5068258;28;19966;-76
2022/03/20 06:55:20;;;;;;;;;;;8.80;69.90;;;;;;5094640;28;19912;-76
2022/03/20 06:57:46;;;;;;;;;;;8.80;69.90;;;;;;5086823;28;19947;-76
2022/03/20 07:00:13;;;;;;;;;;;8.80;69.80;;;;;;5081404;28;19989;-76
2022/03/20 07:02:39;;;;;;;;;;;8.80;70.00;;;;;;5095277;28;20366;-76
2022/03/20 07:05:05;;;;;;;;;;;8.90;70.00;;;;;;5081158;28;20526;-76
2022/03/20 07:07:30;;;;;;;;;;;8.90;70.00;;;;;;5087483;28;19916;-76
2022/03/20 07:09:56;;;;;;;;;;;8.90;69.80;;;;;;5085515;28;19912;-76
2022/03/20 07:12:22;;;;;;;;;;;8.90;69.80;;;;;;5085240;28;19935;-76
2022/03/20 07:14:49;;;;;;;;;;;8.90;69.80;;;;;;5081335;28;20341;-76
2022/03/20 07:17:16;;;;;;;;;;;8.90;69.80;;;;;;5064268;28;20588;-77
2022/03/20 07:19:43;;;;;;;;;;;9.00;69.80;;;;;;5081459;28;19920;-77
2022/03/20 07:22:10;;;;;;;;;;;9.00;69.60;;;;;;5082225;28;19955;-76
2022/03/20 07:24:36;;;;;;;;;;;9.10;69.70;;;;;;5082118;28;19908;-76
2022/03/20 07:29:49;;;;;;;;;;;9.10;69.30;;;;;;5084341;28;20431;-76
2022/03/20 07:32:15;;;;;;;;;;;9.20;69.40;;;;;;5080700;28;19943;-76
2022/03/20 07:34:44;;;;;;;;;;;9.20;69.40;;;;;;5074173;28;20003;-76
2022/03/20 07:37:09;;;;;;;;;;;9.20;69.00;;;;;;5080656;28;19912;-76
2022/03/20 07:39:35;;;;;;;;;;;9.30;68.60;;;;;;5077947;28;20395;-76
2022/03/20 07:42:01;;;;;;;;;;;9.30;68.30;;;;;;5082939;28;19921;-76
2022/03/20 07:44:29;;;;;;;;;;;9.30;68.20;;;;;;5079019;28;19912;-76
2022/03/20 07:46:55;;;;;;;;;;;9.40;67.70;;;;;;5076295;28;19921;-76
2022/03/20 07:49:21;;;;;;;;;;;9.40;67.50;;;;;;5078872;28;20314;-76
2022/03/20 07:51:46;;;;;;;;;;;9.40;67.40;;;;;;5078529;28;19970;-76
2022/03/20 07:54:12;;;;;;;;;;;9.50;67.40;;;;;;5080941;28;19912;-76
2022/03/20 07:56:38;;;;;;;;;;;9.50;67.10;;;;;;5078255;28;19966;-76
2022/03/20 07:59:07;;;;;;;;;;;9.50;67.00;;;;;;5084656;28;19912;-76
2022/03/20 08:01:33;;;;;;;;;;;9.60;66.80;;;;;;5062892;28;20375;-76
2022/03/20 08:03:59;;;;;;;;;;;9.60;66.80;;;;;;5074702;28;20371;-76
2022/03/20 08:06:25;;;;;;;;;;;9.60;66.60;;;;;;5077833;28;20001;-76
2022/03/20 08:08:52;;;;;;;;;;;9.60;66.60;;;;;;5077939;28;19913;-76
2022/03/20 08:11:19;;;;;;;;;;;9.60;66.90;;;;;;5077594;28;19921;-76
2022/03/20 08:13:44;;;;;;;;;;;9.60;66.80;;;;;;5068719;28;19958;-76
2022/03/20 08:16:15;;;;;;;;;;;9.60;66.80;;;;;;5074261;28;19913;-76
2022/03/20 08:18:43;;;;;;;;;;;9.60;66.70;;;;;;5079029;28;19919;-76
2022/03/20 08:21:09;;;;;;;;;;;9.60;66.30;;;;;;5077745;28;19913;-76
2022/03/20 08:23:36;;;;;;;;;;;9.60;66.30;;;;;;5067647;28;19961;-76
2022/03/20 08:26:01;;;;;;;;;;;9.70;66.50;;;;;;5073765;28;20384;-73
2022/03/20 08:28:27;;;;;;;;;;;9.70;66.50;;;;;;5061946;28;19917;-82
2022/03/20 08:30:53;;;;;;;;;;;9.70;66.30;;;;;;5047984;28;19924;-78
2022/03/20 08:33:18;;;;;;;;;;;9.70;65.60;;;;;;5076896;28;19924;-75
2022/03/20 08:35:44;;;;;;;;;;;9.70;65.70;;;;;;5076481;28;19913;-74
2022/03/20 08:38:10;;;;;;;;;;;9.70;65.40;;;;;;5076676;28;19916;-81
2022/03/20 08:40:35;;;;;;;;;;;9.70;65.80;;;;;;5056829;28;19943;-79
2022/03/20 08:43:04;;;;;;;;;;;9.80;66.10;;;;;;5059294;28;19912;-73
2022/03/20 08:45:31;;;;;;;;;;;9.80;66.10;;;;;;5068665;28;19921;-76
2022/03/20 08:47:58;;;;;;;;;;;9.90;66.00;;;;;;5055127;28;19917;-79
2022/03/20 08:50:23;;;;;;;;;;;9.90;65.80;;;;;;5058001;28;19952;-78
2022/03/20 08:52:49;;;;;;;;;;;9.90;65.90;;;;;;5091310;28;19912;-77
2022/03/20 08:55:16;;;;;;;;;;;10.00;65.70;;;;;;5084515;28;19952;-80
2022/03/20 08:57:43;;;;;;;;;;;10.00;65.50;;;;;;5079717;28;20344;-77
2022/03/20 09:00:09;;;;;;;;;;;10.00;65.50;;;;;;5085660;28;19922;-82
2022/03/20 09:02:36;;;;;;;;;;;10.10;65.50;;;;;;5061430;28;19916;-82
2022/03/20 09:05:02;;;;;;;;;;;10.10;65.10;;;;;;5075711;28;19912;-81
2022/03/20 09:07:28;;;;;;;;;;;10.10;64.60;;;;;;5067425;28;19920;-82
2022/03/20 09:09:54;;;;;;;;;;;10.10;64.30;;;;;;5075516;28;19916;-83
2022/03/20 09:12:20;;;;;;;;;;;10.10;64.30;;;;;;5074147;28;19919;-82
2022/03/20 09:14:46;;;;;;;;;;;10.10;64.20;;;;;;5068152;28;19973;-85
2022/03/20 09:19:57;;;;;;;;;;;10.10;64.00;;;;;;5077629;28;19966;-78
2022/03/20 09:22:25;;;;;;;;;;;10.10;63.70;;;;;;5058587;28;19962;-79
2022/03/20 09:24:52;;;;;;;;;;;10.20;64.10;;;;;;5078122;28;19996;-82
2022/03/20 09:27:17;;;;;;;;;;;10.30;64.30;;;;;;5069667;28;20015;-78
2022/03/20 09:29:43;;;;;;;;;;;10.40;64.70;;;;;;5093497;28;19952;-74
2022/03/20 09:32:09;;;;;;;;;;;10.40;64.50;;;;;;5078232;28;20772;-77
2022/03/20 09:34:35;;;;;;;;;;;10.50;64.10;;;;;;5078694;28;19981;-77
2022/03/20 09:37:00;;;;;;;;;;;10.60;63.30;;;;;;5082459;28;19969;-78
2022/03/20 09:39:26;;;;;;;;;;;10.60;63.50;;;;;;5077671;28;20280;-79
2022/03/20 09:41:54;;;;;;;;;;;10.60;64.10;;;;;;5086021;28;20691;-76
2022/03/20 09:44:24;;;;;;;;;;;10.70;64.20;;;;;;5059002;28;20295;-75
2022/03/20 09:46:49;;;;;;;;;;;10.80;63.80;;;;;;5060372;28;19943;-77
2022/03/20 09:49:16;;;;;;;;;;;10.80;63.10;;;;;;5077150;28;20363;-75
2022/03/20 09:51:42;;;;;;;;;;;10.90;63.50;;;;;;5077106;28;19939;-75
2022/03/20 09:54:09;;;;;;;;;;;11.00;63.90;;;;;;5063016;28;19987;-76
2022/03/20 09:56:34;;;;;;;;;;;11.00;63.60;;;;;;5081147;28;20375;-76
2022/03/20 09:59:00;;;;;;;;;;;11.10;63.30;;;;;;5078009;28;19985;-78
2022/03/20 10:01:26;;;;;;;;;;;11.10;63.00;;;;;;5076610;28;19913;-78
2022/03/20 10:04:10;;;;;;;;;;;11.20;63.10;;;;;;5075086;28;19913;-77
2022/03/20 10:06:37;;;;;;;;;;;11.30;63.40;;;;;;5081421;28;19920;-77
2022/03/20 10:09:04;;;;;;;;;;;11.30;63.30;;;;;;5090545;28;20014;-77
2022/03/20 10:11:33;;;;;;;;;;;11.40;63.00;;;;;;5081227;28;19912;-78
2022/03/20 10:14:10;;;;;;;;;;;11.50;63.00;;;;;;5091752;28;19913;-78
2022/03/20 10:16:38;;;;;;;;;;;11.60;63.50;;;;;;5082390;28;20007;-77
2022/03/20 10:19:23;;;;;;;;;;;11.80;62.90;;;;;;5081794;28;19951;-77
2022/03/20 10:21:53;;;;;;;;;;;11.90;62.90;;;;;;5070592;28;19919;-77
2022/03/20 10:24:20;;;;;;;;;;;12.20;63.30;;;;;;5083034;28;19916;-80
2022/03/20 10:26:50;;;;;;;;;;;12.30;63.60;;;;;;5093014;28;20447;-77
2022/03/20 10:29:16;;;;;;;;;;;12.50;63.10;;;;;;5085904;28;19912;-76
2022/03/20 10:31:51;;;;;;;;;;;12.80;62.60;;;;;;5089938;28;19912;-77
2022/03/20 10:34:17;;;;;;;;;;;13.20;62.70;;;;;;5081195;28;19913;-76
2022/03/20 10:36:46;;;;;;;;;;;13.70;62.90;;;;;;5081808;28;19939;-76
2022/03/20 10:39:14;;;;;;;;;;;14.40;63.90;;;;;;5079247;28;19912;-75
2022/03/20 10:41:40;;;;;;;;;;;15.00;60.40;;;;;;5078070;28;19951;-76
2022/03/20 10:44:19;;;;;;;;;;;15.50;60.10;;;;;;5079788;28;20407;-77
2022/03/20 10:46:57;;;;;;;;;;;16.00;59.40;;;;;;5053108;28;19967;-77
2022/03/20 10:49:23;;;;;;;;;;;16.40;58.40;;;;;;5060750;28;19948;-77
2022/03/20 10:52:08;;;;;;;;;;;16.50;58.70;;;;;;5072336;28;19919;-78
2022/03/20 10:54:38;;;;;;;;;;;16.70;57.90;;;;;;5065987;28;19916;-77
2022/03/20 10:57:06;;;;;;;;;;;16.80;57.80;;;;;;5064544;28;19936;-77
2022/03/20 10:59:33;;;;;;;;;;;16.90;55.80;;;;;;5075895;28;20442;-77
2022/03/20 11:01:59;;;;;;;;;;;17.00;56.60;;;;;;5066905;28;19912;-74
2022/03/20 11:04:24;;;;;;;;;;;17.20;56.90;;;;;;5061284;28;19999;-75
2022/03/20 11:06:54;;;;;;;;;;;17.40;55.70;;;;;;5068883;28;19983;-81
2022/03/20 11:09:20;;;;;;;;;;;17.60;55.80;;;;;;5060589;28;19958;-77
2022/03/20 11:11:49;;;;;;;;;;;17.90;55.30;;;;;;5066014;28;19913;-79
2022/03/20 11:14:18;;;;;;;;;;;18.20;55.50;;;;;;5061024;28;19919;-80
2022/03/20 11:16:46;;;;;;;;;;;18.50;55.10;;;;;;5057979;28;20287;-80
2022/03/20 11:19:13;;;;;;;;;;;18.80;54.00;;;;;;5071735;28;19920;-79
2022/03/20 11:21:41;;;;;;;;;;;19.00;53.10;;;;;;5064514;28;19913;-78
2022/03/20 11:24:07;;;;;;;;;;;19.10;52.70;;;;;;5061417;28;19913;-78
2022/03/20 11:26:35;;;;;;;;;;;19.30;52.70;;;;;;5059790;28;19913;-78
2022/03/20 11:29:04;;;;;;;;;;;19.40;52.70;;;;;;5064506;28;19913;-78
2022/03/20 11:31:34;;;;;;;;;;;19.60;51.50;;;;;;5063065;28;19959;-78
2022/03/20 11:34:02;;;;;;;;;;;19.80;52.70;;;;;;5059186;28;19912;-75
2022/03/20 11:36:28;;;;;;;;;;;19.90;53.00;;;;;;5060814;28;19917;-77
2022/03/20 11:39:23;;;;;;;;;;;20.20;51.80;;;;;;5056116;28;19913;-79
2022/03/20 11:42:08;;;;;;;;;;;20.30;51.90;;;;;;5040855;28;20387;-79
2022/03/20 11:44:34;;;;;;;;;;;20.50;52.10;;;;;;5054488;28;19913;-81
2022/03/20 11:47:20;;;;;;;;;;;20.60;51.00;;;;;;5061223;28;20322;-78
2022/03/20 11:50:05;;;;;;;;;;;20.70;51.40;;;;;;5048769;28;19909;-80
2022/03/20 11:52:44;;;;;;;;;;;20.70;50.40;;;;;;5048551;28;20422;-80
2022/03/20 11:55:23;;;;;;;;;;;20.70;50.10;;;;;;5060366;28;19965;-77
2022/03/20 11:57:49;;;;;;;;;;;20.80;50.80;;;;;;5051226;28;20394;-77
2022/03/20 12:00:18;;;;;;;;;;;20.80;51.20;;;;;;5061972;28;19912;-81
2022/03/20 12:02:53;;;;;;;;;;;20.90;50.30;;;;;;5065892;28;19912;-80
2022/03/20 12:05:19;;;;;;;;;;;21.00;50.40;;;;;;5058082;28;20355;-82
2022/03/20 12:07:59;;;;;;;;;;;21.10;52.20;;;;;;5057760;28;19939;-80
2022/03/20 12:10:34;;;;;;;;;;;21.30;53.00;;;;;;5056772;28;19917;-74
2022/03/20 12:13:04;;;;;;;;;;;21.50;49.90;;;;;;5066704;28;19913;-76
2022/03/20 12:15:30;;;;;;;;;;;21.50;49.20;;;;;;5055167;28;19979;-81
2022/03/20 12:17:56;;;;;;;;;;;21.50;49.30;;;;;;5062636;28;20380;-81
2022/03/20 12:20:41;;;;;;;;;;;21.50;49.40;;;;;;5056659;28;19912;-74
2022/03/20 12:23:25;;;;;;;;;;;21.50;51.00;;;;;;5062499;28;19952;-79
2022/03/20 12:25:51;;;;;;;;;;;21.70;50.40;;;;;;5068749;28;20291;-78
2022/03/20 12:28:29;;;;;;;;;;;21.80;51.20;;;;;;5057594;28;19924;-78
2022/03/20 12:30:55;;;;;;;;;;;22.00;51.10;;;;;;5056510;28;20008;-82
2022/03/20 12:33:22;;;;;;;;;;;22.10;50.00;;;;;;5057298;28;19952;-80
2022/03/20 12:35:47;;;;;;;;;;;22.20;48.90;;;;;;5064239;28;19913;-80
2022/03/20 12:38:32;;;;;;;;;;;22.10;49.20;;;;;;5063404;28;20407;-77
2022/03/20 12:41:05;;;;;;;;;;;22.10;48.10;;;;;;5065955;28;19934;-83
2022/03/20 12:43:30;;;;;;;;;;;22.10;49.10;;;;;;5055434;28;20000;-78
2022/03/20 12:45:57;;;;;;;;;;;22.10;48.80;;;;;;5070224;28;19986;-77
2022/03/20 12:48:23;;;;;;;;;;;22.00;48.00;;;;;;5078727;28;20023;-79
2022/03/20 12:50:59;;;;;;;;;;;22.00;49.40;;;;;;5077929;28;20357;-77
2022/03/20 12:53:35;;;;;;;;;;;22.00;49.10;;;;;;5084782;28;20386;-73
2022/03/20 12:56:02;;;;;;;;;;;21.80;48.10;;;;;;5077967;28;20375;-74
2022/03/20 12:58:28;;;;;;;;;;;21.60;49.20;;;;;;5080079;28;19988;-78
2022/03/20 13:00:55;;;;;;;;;;;21.50;50.30;;;;;;5090170;28;20298;-79
2022/03/20 13:03:22;;;;;;;;;;;21.40;49.80;;;;;;5065168;28;19961;-76
2022/03/20 13:05:47;;;;;;;;;;;21.30;49.50;;;;;;5083830;28;19913;-77
2022/03/20 13:08:20;;;;;;;;;;;21.20;49.90;;;;;;5060524;28;20351;-80
2022/03/20 13:10:46;;;;;;;;;;;21.10;49.80;;;;;;5092974;28;19962;-81
2022/03/20 13:13:16;;;;;;;;;;;20.90;49.90;;;;;;5082975;28;19952;-84
2022/03/20 13:15:42;;;;;;;;;;;20.70;50.40;;;;;;5065511;28;19912;-83
2022/03/20 13:18:09;;;;;;;;;;;20.50;51.00;;;;;;5077324;28;20386;-83
2022/03/20 13:20:36;;;;;;;;;;;20.40;51.90;;;;;;5075105;28;19909;-82
2022/03/20 13:23:06;;;;;;;;;;;20.30;51.50;;;;;;5077033;28;19935;-84
2022/03/20 13:25:32;;;;;;;;;;;20.20;52.00;;;;;;5058812;28;19912;-83
2022/03/20 13:27:58;;;;;;;;;;;20.10;52.00;;;;;;5059171;28;19920;-85
2022/03/20 13:30:32;;;;;;;;;;;19.90;51.60;;;;;;5077232;28;19909;-82
2022/03/20 13:32:58;;;;;;;;;;;19.80;52.30;;;;;;5076769;28;19916;-83
2022/03/20 13:35:24;;;;;;;;;;;19.60;52.50;;;;;;5077148;28;19916;-83
2022/03/20 13:37:57;;;;;;;;;;;19.50;52.50;;;;;;5077003;28;20046;-84
2022/03/20 13:40:25;;;;;;;;;;;19.40;52.90;;;;;;5076177;28;20349;-83
2022/03/20 13:42:50;;;;;;;;;;;19.40;52.80;;;;;;5079346;28;19909;-83
2022/03/20 13:45:16;;;;;;;;;;;19.20;53.20;;;;;;5080802;28;19917;-83
2022/03/20 13:47:42;;;;;;;;;;;19.10;53.10;;;;;;5080691;28;20379;-84
2022/03/20 13:50:08;;;;;;;;;;;19.00;53.50;;;;;;5081001;28;19908;-84
2022/03/20 13:52:37;;;;;;;;;;;19.00;54.00;;;;;;5080668;28;19908;-83
2022/03/20 13:55:10;;;;;;;;;;;19.00;54.40;;;;;;5080648;28;19919;-83
2022/03/20 13:57:52;;;;;;;;;;;18.90;53.80;;;;;;5080856;28;19908;-83
2022/03/20 14:00:18;;;;;;;;;;;18.80;54.00;;;;;;5067648;28;19912;-82
2022/03/20 14:02:46;;;;;;;;;;;18.80;54.60;;;;;;5080370;28;20306;-82
2022/03/20 14:05:13;;;;;;;;;;;18.70;53.70;;;;;;5068775;28;19954;-85
2022/03/20 14:07:39;;;;;;;;;;;18.60;54.50;;;;;;5080416;28;19916;-83
2022/03/20 14:10:18;;;;;;;;;;;18.50;53.80;;;;;;5079963;28;20014;-84
2022/03/20 14:12:44;;;;;;;;;;;18.40;54.50;;;;;;5081150;28;19908;-84
2022/03/20 14:15:11;;;;;;;;;;;18.30;54.80;;;;;;5086146;28;20436;-83
2022/03/20 14:17:43;;;;;;;;;;;18.20;55.50;;;;;;5064025;28;19927;-84
2022/03/20 14:20:10;;;;;;;;;;;18.20;55.50;;;;;;5079000;28;20013;-83
2022/03/20 14:22:54;;;;;;;;;;;18.20;56.10;;;;;;5079509;28;19908;-84
2022/03/20 14:25:42;;;;;;;;;;;18.20;55.80;;;;;;5067098;28;20279;-84
2022/03/20 14:28:12;;;;;;;;;;;18.10;55.60;;;;;;5062163;28;19920;-84
2022/03/20 14:41:37;;;;;;;;;;;17.40;56.30;;;;;;5079119;28;19916;-84
2022/03/20 14:44:05;;;;;;;;;;;17.30;56.60;;;;;;5080098;28;20367;-84
2022/03/20 14:46:31;;;;;;;;;;;17.20;56.80;;;;;;5079405;28;19952;-84
2022/03/20 14:48:57;;;;;;;;;;;17.10;56.70;;;;;;5081484;28;19919;-84
2022/03/20 14:51:24;;;;;;;;;;;17.10;57.10;;;;;;5081203;28;19909;-84
2022/03/20 14:53:49;;;;;;;;;;;17.00;57.20;;;;;;5078612;28;19916;-84
2022/03/20 14:56:15;;;;;;;;;;;17.00;57.30;;;;;;5080243;28;19958;-84
2022/03/20 14:58:41;;;;;;;;;;;16.90;57.30;;;;;;5084127;28;19909;-84
2022/03/20 15:01:10;;;;;;;;;;;16.80;57.70;;;;;;5095161;28;19919;-84
2022/03/20 15:03:36;;;;;;;;;;;16.80;57.80;;;;;;5083098;28;19909;-84